createdAt,value
2022-08-04T00:02:14.586Z,27.00
2022-08-04T00:04:50.237Z,27.00
2022-08-04T00:07:44.401Z,27.00
2022-08-04T00:10:17.588Z,27.00
2022-08-04T00:12:51.053Z,26.90
2022-08-04T00:15:20.830Z,26.90
2022-08-04T00:17:54.964Z,26.90
2022-08-04T00:20:24.444Z,26.90
2022-08-04T00:22:53.829Z,26.80
2022-08-04T00:25:21.957Z,26.80
2022-08-04T00:27:50.692Z,26.80
2022-08-04T00:30:19.001Z,26.70
2022-08-04T00:32:47.897Z,26.70
2022-08-04T00:35:18.349Z,26.70
2022-08-04T00:37:47.449Z,26.70
2022-08-04T00:40:25.995Z,26.70
2022-08-04T00:43:10.215Z,26.70
2022-08-04T00:46:17.339Z,26.60
2022-08-04T00:49:04.016Z,26.60
2022-08-04T00:51:45.358Z,26.60
2022-08-04T00:54:19.332Z,26.50
2022-08-04T00:57:04.855Z,26.50
2022-08-04T00:59:45.955Z,26.40
2022-08-04T01:02:26.009Z,26.40
2022-08-04T01:05:06.591Z,26.40
2022-08-04T01:08:05.731Z,26.40
2022-08-04T01:10:42.480Z,26.40
2022-08-04T01:13:27.812Z,26.40
2022-08-04T01:16:03.437Z,26.40
2022-08-04T01:18:37.256Z,26.30
2022-08-04T01:21:32.091Z,26.30
2022-08-04T01:24:26.012Z,26.30
2022-08-04T01:27:03.773Z,26.20
2022-08-04T01:29:46.575Z,26.20
2022-08-04T01:32:25.551Z,26.20
2022-08-04T01:35:02.027Z,26.20
2022-08-04T01:37:48.084Z,26.10
2022-08-04T01:40:17.150Z,26.10
2022-08-04T01:42:46.663Z,26.00
2022-08-04T01:45:16.917Z,26.00
2022-08-04T01:47:51.032Z,26.00
2022-08-04T01:50:19.253Z,26.00
2022-08-04T01:52:51.201Z,26.00
2022-08-04T01:55:20.135Z,26.00
2022-08-04T01:57:50.895Z,25.90
2022-08-04T02:00:22.898Z,25.90
2022-08-04T02:02:52.218Z,25.90
2022-08-04T02:05:22.626Z,25.90
2022-08-04T02:08:05.427Z,25.80
2022-08-04T02:10:49.671Z,25.70
2022-08-04T02:13:24.727Z,25.70
2022-08-04T02:16:02.739Z,25.60
2022-08-04T02:18:34.302Z,25.60
2022-08-04T02:21:03.611Z,25.60
2022-08-04T02:23:36.041Z,25.60
2022-08-04T02:26:06.437Z,25.50
2022-08-04T02:28:47.050Z,25.50
2022-08-04T02:31:32.050Z,25.50
2022-08-04T02:34:09.381Z,25.50
2022-08-04T02:36:39.721Z,25.50
2022-08-04T02:39:10.323Z,25.50
2022-08-04T02:41:41.158Z,25.50
2022-08-04T02:44:10.759Z,25.50
2022-08-04T02:46:43.013Z,25.40
2022-08-04T02:49:12.106Z,25.40
2022-08-04T02:51:44.480Z,25.40
2022-08-04T02:54:12.988Z,25.30
2022-08-04T02:56:41.925Z,25.30
2022-08-04T02:59:12.282Z,25.30
2022-08-04T03:01:57.600Z,25.20
2022-08-04T03:04:52.271Z,25.20
2022-08-04T03:07:54.500Z,25.20
2022-08-04T03:10:57.212Z,25.10
2022-08-04T03:13:58.344Z,25.10
2022-08-04T03:16:39.301Z,25.00
2022-08-04T03:19:29.519Z,25.00
2022-08-04T03:22:28.928Z,25.00
2022-08-04T03:25:26.601Z,24.90
2022-08-04T03:28:47.684Z,24.90
2022-08-04T03:31:54.996Z,24.90
2022-08-04T03:34:45.232Z,24.80
2022-08-04T03:37:40.104Z,24.80
2022-08-04T03:40:35.064Z,24.80
2022-08-04T03:43:58.842Z,24.80
2022-08-04T03:46:44.854Z,24.80
2022-08-04T03:49:38.360Z,24.80
2022-08-04T03:52:54.584Z,24.80
2022-08-04T03:55:42.300Z,24.80
2022-08-04T03:58:39.887Z,24.80
2022-08-04T04:01:21.329Z,24.80
2022-08-04T04:04:09.888Z,24.90
2022-08-04T04:07:03.517Z,24.90
2022-08-04T04:10:08.888Z,24.90
2022-08-04T04:13:08.958Z,24.90
2022-08-04T04:16:00.255Z,24.90
2022-08-04T04:18:48.845Z,25.00
2022-08-04T04:21:32.628Z,24.90
2022-08-04T04:24:41.986Z,24.90
2022-08-04T04:27:19.604Z,25.00
2022-08-04T04:30:04.213Z,25.00
2022-08-04T04:32:45.429Z,25.00
2022-08-04T04:35:30.588Z,25.00
2022-08-04T04:38:15.389Z,25.10
2022-08-04T04:41:01.091Z,25.10
2022-08-04T04:43:53.186Z,25.20
2022-08-04T04:46:31.200Z,25.20
2022-08-04T04:49:05.715Z,25.30
2022-08-04T04:51:40.074Z,25.30
2022-08-04T04:54:14.803Z,25.40
2022-08-04T04:56:48.587Z,25.40
2022-08-04T04:59:21.557Z,25.50
2022-08-04T05:02:16.077Z,25.50
2022-08-04T05:05:07.241Z,25.50
2022-08-04T05:08:43.724Z,25.50
2022-08-04T05:11:15.087Z,25.60
2022-08-04T05:14:35.371Z,25.60
2022-08-04T05:16:41.569Z,25.70
2022-08-04T05:19:20.948Z,25.70
2022-08-04T05:21:52.539Z,25.80
2022-08-04T05:24:23.378Z,25.80
2022-08-04T05:26:57.027Z,25.90
2022-08-04T05:29:32.033Z,25.90
2022-08-04T05:32:04.227Z,26.00
2022-08-04T05:34:40.394Z,26.00
2022-08-04T05:37:12.269Z,26.10
2022-08-04T05:39:47.215Z,26.10
2022-08-04T05:42:16.673Z,26.10
2022-08-04T05:44:51.003Z,26.10
2022-08-04T05:47:22.409Z,26.20
2022-08-04T05:50:01.460Z,26.20
2022-08-04T05:52:32.385Z,26.20
2022-08-04T05:55:01.628Z,26.30
2022-08-04T05:57:30.503Z,26.30
2022-08-04T06:00:19.534Z,26.40
2022-08-04T06:02:52.171Z,26.40
2022-08-04T06:05:21.024Z,26.50
2022-08-04T06:08:12.312Z,26.50
2022-08-04T06:10:40.956Z,26.60
2022-08-04T06:13:48.995Z,26.60
2022-08-04T06:16:04.018Z,26.60
2022-08-04T06:20:00.220Z,26.70
2022-08-04T06:21:26.024Z,26.70
2022-08-04T06:24:00.918Z,26.80
2022-08-04T06:26:35.877Z,26.80
2022-08-04T06:29:05.560Z,26.90
2022-08-04T06:32:31.491Z,26.90
2022-08-04T06:34:36.777Z,26.90
2022-08-04T06:37:05.745Z,27.00
2022-08-04T06:39:35.198Z,27.00
2022-08-04T06:42:22.650Z,27.10
2022-08-04T06:44:52.894Z,27.10
2022-08-04T06:47:23.908Z,27.20
2022-08-04T06:51:26.165Z,27.20
2022-08-04T06:52:45.228Z,27.20
2022-08-04T06:55:14.689Z,27.30
2022-08-04T06:57:44.477Z,27.30
2022-08-04T07:00:15.161Z,27.40
2022-08-04T07:02:49.249Z,27.50
2022-08-04T07:05:19.358Z,27.50
2022-08-04T07:07:57.152Z,27.50
2022-08-04T07:10:28.870Z,27.60
2022-08-04T07:12:58.403Z,27.60
2022-08-04T07:15:27.018Z,27.70
2022-08-04T07:18:01.344Z,27.70
2022-08-04T07:20:34.422Z,27.80
2022-08-04T07:23:04.819Z,27.90
2022-08-04T07:26:00.877Z,27.90
2022-08-04T07:28:23.739Z,28.00
2022-08-04T07:30:54.063Z,28.00
2022-08-04T07:33:24.440Z,28.00
2022-08-04T07:36:10.462Z,28.10
2022-08-04T07:38:48.365Z,28.20
2022-08-04T07:41:39.507Z,28.20
2022-08-04T07:44:09.012Z,28.30
2022-08-04T07:46:37.712Z,28.30
2022-08-04T07:49:07.845Z,28.40
2022-08-04T07:51:37.965Z,28.40
2022-08-04T07:54:07.883Z,28.50
2022-08-04T07:56:38.920Z,28.50
2022-08-04T07:59:07.836Z,28.60
2022-08-04T08:01:37.097Z,28.60
2022-08-04T08:04:09.278Z,28.70
2022-08-04T08:06:43.125Z,28.70
2022-08-04T08:09:14.514Z,28.80
2022-08-04T08:12:35.114Z,28.80
2022-08-04T08:14:32.540Z,28.90
2022-08-04T08:17:02.634Z,28.90
2022-08-04T08:19:33.343Z,29.00
2022-08-04T08:22:02.226Z,29.00
2022-08-04T08:24:31.721Z,29.10
2022-08-04T08:27:00.527Z,29.10
2022-08-04T08:29:30.896Z,29.10
2022-08-04T08:32:02.879Z,29.20
2022-08-04T08:34:37.254Z,29.20
2022-08-04T08:37:13.605Z,29.30
2022-08-04T08:39:48.420Z,29.40
2022-08-04T08:42:54.067Z,29.40
2022-08-04T08:45:55.396Z,29.50
2022-08-04T08:48:53.673Z,29.60
2022-08-04T08:51:37.509Z,29.70
2022-08-04T08:54:33.663Z,29.70
2022-08-04T08:57:23.291Z,29.80
2022-08-04T09:00:08.258Z,29.90
2022-08-04T09:03:04.658Z,30.00
2022-08-04T09:05:48.986Z,30.10
2022-08-04T09:08:31.048Z,30.10
2022-08-04T09:11:05.901Z,30.20
2022-08-04T09:13:41.374Z,30.20
2022-08-04T09:16:20.480Z,30.30
2022-08-04T09:18:55.853Z,30.40
2022-08-04T09:21:33.062Z,30.40
2022-08-04T09:24:34.846Z,30.50
2022-08-04T09:27:01.899Z,30.50
2022-08-04T09:29:38.044Z,30.60
2022-08-04T09:32:11.906Z,30.70
2022-08-04T09:35:01.394Z,30.70
2022-08-04T09:37:46.126Z,30.80
2022-08-04T09:40:31.350Z,30.80
2022-08-04T09:43:26.323Z,30.90
2022-08-04T09:46:03.555Z,31.00
2022-08-04T09:48:44.064Z,31.00
2022-08-04T09:51:20.940Z,31.10
2022-08-04T09:53:58.842Z,31.10
2022-08-04T09:56:33.979Z,31.10
2022-08-04T09:59:12.286Z,31.20
2022-08-04T10:01:44.398Z,31.20
2022-08-04T10:04:17.823Z,31.30
2022-08-04T10:07:06.146Z,31.40
2022-08-04T10:09:51.693Z,31.40
2022-08-04T10:12:32.593Z,31.50
2022-08-04T10:15:12.231Z,31.60
2022-08-04T10:17:52.835Z,31.70
2022-08-04T10:20:44.339Z,31.70
2022-08-04T10:23:23.220Z,31.70
2022-08-04T10:26:07.383Z,31.70
2022-08-04T10:28:44.748Z,31.80
2022-08-04T10:31:20.426Z,31.80
2022-08-04T10:33:54.124Z,31.80
2022-08-04T10:36:28.966Z,31.90
2022-08-04T10:39:04.789Z,32.00
2022-08-04T10:41:39.533Z,32.00
2022-08-04T10:44:24.559Z,32.10
2022-08-04T10:46:56.976Z,32.20
2022-08-04T10:49:32.155Z,32.20
2022-08-04T10:52:06.415Z,32.20
2022-08-04T10:54:48.288Z,32.30
2022-08-04T10:57:24.695Z,32.40
2022-08-04T11:00:03.869Z,32.40
2022-08-04T11:02:41.261Z,32.50
2022-08-04T11:05:25.570Z,32.60
2022-08-04T11:07:58.642Z,32.60
2022-08-04T11:10:28.534Z,32.60
2022-08-04T11:13:01.998Z,32.70
2022-08-04T11:15:37.786Z,32.80
2022-08-04T11:18:16.158Z,32.80
2022-08-04T11:20:50.125Z,32.90
2022-08-04T11:23:21.800Z,32.90
2022-08-04T11:25:56.986Z,33.00
2022-08-04T11:28:36.219Z,33.10
2022-08-04T11:31:08.855Z,33.10
2022-08-04T11:33:44.353Z,33.20
2022-08-04T11:36:21.578Z,33.20
2022-08-04T11:38:56.577Z,33.20
2022-08-04T11:41:41.263Z,33.30
2022-08-04T11:44:17.769Z,33.40
2022-08-04T11:46:53.205Z,33.50
2022-08-04T11:49:32.651Z,33.50
2022-08-04T11:52:22.977Z,33.60
2022-08-04T11:54:52.528Z,33.70
2022-08-04T11:57:25.690Z,33.80
2022-08-04T12:00:07.538Z,33.80
2022-08-04T12:02:56.526Z,33.90
2022-08-04T12:05:36.036Z,34.00
2022-08-04T12:08:23.134Z,34.00
2022-08-04T12:11:03.268Z,34.00
2022-08-04T12:13:40.709Z,34.10
2022-08-04T12:16:19.345Z,34.20
2022-08-04T12:18:54.108Z,34.30
2022-08-04T12:21:29.162Z,34.40
2022-08-04T12:24:03.330Z,34.50
2022-08-04T12:26:37.580Z,34.60
2022-08-04T12:29:10.922Z,34.80
2022-08-04T12:31:46.622Z,34.90
2022-08-04T12:34:23.176Z,35.00
2022-08-04T12:36:58.961Z,35.10
2022-08-04T12:39:28.650Z,35.20
2022-08-04T12:42:04.818Z,35.20
2022-08-04T12:44:37.533Z,35.30
2022-08-04T12:47:28.009Z,35.30
2022-08-04T12:50:03.843Z,35.30
2022-08-04T12:53:01.692Z,35.30
2022-08-04T12:55:28.795Z,35.30
2022-08-04T12:57:58.494Z,35.30
2022-08-04T13:00:32.194Z,35.30
2022-08-04T13:03:10.126Z,35.30
2022-08-04T13:05:41.980Z,35.40
2022-08-04T13:08:11.552Z,35.50
2022-08-04T13:10:41.864Z,35.50
2022-08-04T13:13:16.296Z,35.60
2022-08-04T13:15:47.162Z,35.70
2022-08-04T13:18:28.892Z,35.70
2022-08-04T13:21:20.490Z,35.70
2022-08-04T13:24:10.079Z,35.70
2022-08-04T13:26:55.160Z,35.70
2022-08-04T13:30:00.304Z,35.70
2022-08-04T13:32:18.570Z,35.80
2022-08-04T13:34:48.888Z,35.80
2022-08-04T13:37:27.786Z,35.90
2022-08-04T13:39:58.546Z,35.90
2022-08-04T13:42:28.478Z,35.90
2022-08-04T13:44:59.851Z,35.90
2022-08-04T13:47:33.498Z,35.90
2022-08-04T13:50:16.617Z,35.90
2022-08-04T13:52:46.961Z,36.00
2022-08-04T13:55:26.512Z,36.10
2022-08-04T13:57:59.421Z,36.20
2022-08-04T14:00:39.010Z,36.30
2022-08-04T14:03:23.764Z,36.40
2022-08-04T14:06:11.880Z,36.50
2022-08-04T14:08:49.641Z,36.60
2022-08-04T14:12:04.920Z,36.70
2022-08-04T14:14:19.109Z,36.60
2022-08-04T14:17:00.562Z,36.60
2022-08-04T14:19:36.019Z,36.50
2022-08-04T14:22:04.914Z,36.50
2022-08-04T14:24:34.451Z,36.60
2022-08-04T14:27:02.765Z,36.60
2022-08-04T14:29:38.337Z,36.70
2022-08-04T14:32:14.235Z,36.70
2022-08-04T14:34:45.877Z,36.80
2022-08-04T14:37:19.686Z,36.80
2022-08-04T14:40:17.998Z,36.80
2022-08-04T14:42:55.774Z,36.80
2022-08-04T14:45:35.017Z,36.70
2022-08-04T14:48:07.033Z,36.80
2022-08-04T14:50:38.269Z,36.80
2022-08-04T14:53:09.071Z,36.80
2022-08-04T14:55:40.575Z,36.90
2022-08-04T14:58:35.958Z,36.90
2022-08-04T15:00:59.052Z,36.90
2022-08-04T15:03:28.743Z,36.90
2022-08-04T15:06:05.446Z,36.90
2022-08-04T15:08:36.589Z,37.00
2022-08-04T15:11:06.204Z,37.00
2022-08-04T15:13:34.948Z,37.00
2022-08-04T15:16:07.459Z,37.00
2022-08-04T15:18:39.147Z,37.00
2022-08-04T15:21:08.718Z,37.10
2022-08-04T15:23:38.563Z,37.10
2022-08-04T15:26:13.893Z,37.10
2022-08-04T15:28:47.292Z,37.20
2022-08-04T15:32:07.427Z,37.30
2022-08-04T15:34:08.517Z,37.50
2022-08-04T15:36:43.386Z,37.60
2022-08-04T15:39:26.001Z,37.80
2022-08-04T15:42:02.013Z,38.00
2022-08-04T15:45:17.884Z,38.20
2022-08-04T15:48:29.000Z,38.40
2022-08-04T15:51:14.428Z,38.60
2022-08-04T15:54:23.535Z,38.70
2022-08-04T15:57:01.247Z,38.80
2022-08-04T16:00:02.393Z,38.60
2022-08-04T16:02:40.477Z,38.50
2022-08-04T16:05:34.509Z,38.30
2022-08-04T16:08:17.740Z,38.30
2022-08-04T16:10:48.873Z,38.30
2022-08-04T16:13:20.649Z,38.30
2022-08-04T16:15:51.646Z,38.50
2022-08-04T16:18:38.791Z,38.70
2022-08-04T16:21:17.639Z,38.90
2022-08-04T16:24:06.426Z,39.00
2022-08-04T16:26:54.211Z,39.10
2022-08-04T16:29:30.638Z,39.00
2022-08-04T16:32:19.658Z,38.80
2022-08-04T16:34:54.779Z,38.80
2022-08-04T16:37:26.557Z,38.90
2022-08-04T16:40:33.282Z,39.10
2022-08-04T16:43:05.439Z,39.20
2022-08-04T16:45:49.989Z,39.30
2022-08-04T16:48:18.970Z,39.30
2022-08-04T16:50:49.586Z,39.40
2022-08-04T16:54:04.126Z,39.40
2022-08-04T16:56:10.085Z,39.30
2022-08-04T16:58:50.295Z,39.20
2022-08-04T17:01:33.018Z,39.20
2022-08-04T17:04:05.290Z,39.20
2022-08-04T17:06:36.563Z,39.30
2022-08-04T17:09:06.990Z,39.40
2022-08-04T17:11:35.233Z,39.50
2022-08-04T17:14:05.736Z,39.60
2022-08-04T17:16:37.435Z,39.80
2022-08-04T17:19:06.302Z,39.90
2022-08-04T17:21:36.718Z,39.90
2022-08-04T17:24:14.019Z,40.00
2022-08-04T17:26:54.543Z,39.90
2022-08-04T17:29:42.812Z,39.90
2022-08-04T17:32:18.753Z,39.70
2022-08-04T17:34:50.694Z,39.60
2022-08-04T17:37:38.394Z,39.50
2022-08-04T17:40:09.985Z,39.50
2022-08-04T17:42:41.664Z,39.40
2022-08-04T17:48:02.874Z,39.20
2022-08-04T17:50:35.970Z,39.00
2022-08-04T17:53:11.525Z,38.90
2022-08-04T17:55:46.918Z,38.60
2022-08-04T17:58:21.532Z,38.40
2022-08-04T18:03:51.890Z,37.90
2022-08-04T18:06:22.990Z,37.60
2022-08-04T18:08:57.443Z,37.40
2022-08-04T18:11:41.309Z,37.20
2022-08-04T18:14:10.769Z,37.10
2022-08-04T18:16:45.633Z,36.90
2022-08-04T18:19:18.940Z,36.70
2022-08-04T18:21:59.840Z,36.50
2022-08-04T18:24:35.950Z,36.40
2022-08-04T18:27:22.024Z,36.20
2022-08-04T18:30:38.533Z,36.00
2022-08-04T18:33:04.235Z,35.90
2022-08-04T18:36:31.756Z,35.80
2022-08-04T18:38:23.378Z,35.60
2022-08-04T18:40:52.800Z,35.50
2022-08-04T18:43:28.495Z,35.40
2022-08-04T18:46:14.305Z,35.20
2022-08-04T18:48:52.269Z,35.20
2022-08-04T18:51:25.236Z,35.00
2022-08-04T18:53:59.580Z,34.90
2022-08-04T18:56:29.160Z,34.80
2022-08-04T18:59:00.055Z,34.70
2022-08-04T19:04:33.762Z,34.50
2022-08-04T19:07:29.593Z,34.40
2022-08-04T19:09:58.044Z,34.30
2022-08-04T19:12:28.259Z,34.20
2022-08-04T19:14:58.921Z,34.10
2022-08-04T19:17:56.763Z,33.90
2022-08-04T19:20:26.790Z,33.90
2022-08-04T19:24:11.456Z,33.80
2022-08-04T19:26:02.714Z,33.70
2022-08-04T19:28:35.489Z,33.60
2022-08-04T19:31:05.241Z,33.50
2022-08-04T19:33:58.662Z,33.50
2022-08-04T19:36:27.858Z,33.40
2022-08-04T19:39:00.299Z,33.30
2022-08-04T19:41:31.916Z,33.30
2022-08-04T19:44:00.121Z,33.20
2022-08-04T19:46:29.218Z,33.20
2022-08-04T19:48:59.656Z,33.10
2022-08-04T19:51:29.983Z,33.10
2022-08-04T19:54:04.027Z,33.00
2022-08-04T19:56:40.930Z,32.90
2022-08-04T19:59:10.081Z,32.90
2022-08-04T20:01:44.113Z,32.80
2022-08-04T20:04:13.742Z,32.70
2022-08-04T20:06:42.725Z,32.70
2022-08-04T20:09:25.752Z,32.70
2022-08-04T20:11:55.641Z,32.60
2022-08-04T20:14:32.881Z,32.50
2022-08-04T20:17:03.320Z,32.50
2022-08-04T20:19:38.790Z,32.40
2022-08-04T20:22:08.584Z,32.40
2022-08-04T20:25:10.885Z,32.30
2022-08-04T20:27:51.754Z,32.20
2022-08-04T20:30:28.790Z,32.10
2022-08-04T20:32:57.009Z,32.10
2022-08-04T20:35:26.710Z,32.00
2022-08-04T20:38:00.207Z,32.00
2022-08-04T20:40:30.644Z,31.90
2022-08-04T20:42:59.732Z,31.90
2022-08-04T20:45:56.695Z,31.80
2022-08-04T20:48:16.561Z,31.80
2022-08-04T20:50:46.482Z,31.70
2022-08-04T20:56:04.662Z,31.60
2022-08-04T20:58:34.756Z,31.60
2022-08-04T21:01:02.962Z,31.60
2022-08-04T21:03:49.515Z,31.50
2022-08-04T21:06:19.256Z,31.50
2022-08-04T21:08:57.346Z,31.50
2022-08-04T21:11:32.706Z,31.50
2022-08-04T21:14:01.517Z,31.50
2022-08-04T21:16:55.677Z,31.50
2022-08-04T21:19:22.623Z,31.50
2022-08-04T21:21:53.241Z,31.50
2022-08-04T21:24:25.997Z,31.50
2022-08-04T21:26:57.367Z,31.50
2022-08-04T21:29:29.645Z,31.50
2022-08-04T21:32:05.902Z,31.50
2022-08-04T21:34:54.509Z,31.50
2022-08-04T21:37:22.794Z,31.50
2022-08-04T21:40:15.443Z,31.50
2022-08-04T21:43:00.712Z,31.50
2022-08-04T21:45:35.974Z,31.50
2022-08-04T21:48:04.927Z,31.50
2022-08-04T21:50:33.132Z,31.40
2022-08-04T21:53:01.502Z,31.50
2022-08-04T21:56:05.202Z,31.50
2022-08-04T21:58:19.077Z,31.40
2022-08-04T22:00:57.607Z,31.40
2022-08-04T22:03:52.011Z,31.30
2022-08-04T22:06:17.404Z,31.30
2022-08-04T22:08:49.145Z,31.20
2022-08-04T22:11:26.032Z,31.20
2022-08-04T22:14:10.954Z,31.20
2022-08-04T22:16:40.476Z,31.10
2022-08-04T22:19:10.849Z,31.10
2022-08-04T22:21:45.411Z,31.00
2022-08-04T22:24:15.023Z,31.00
2022-08-04T22:26:43.073Z,30.90
2022-08-04T22:29:14.657Z,30.90
2022-08-04T22:31:55.845Z,30.80
2022-08-04T22:34:25.264Z,30.80
2022-08-04T22:36:53.957Z,30.80
2022-08-04T22:39:23.704Z,30.80
2022-08-04T22:42:04.383Z,30.80
2022-08-04T22:44:34.534Z,30.70
2022-08-04T22:47:08.900Z,30.70
2022-08-04T22:50:01.639Z,30.70
2022-08-04T22:52:37.004Z,30.60
2022-08-04T22:55:23.871Z,30.60
2022-08-04T22:58:05.203Z,30.50
2022-08-04T23:00:40.195Z,30.50
2022-08-04T23:03:10.025Z,30.40
2022-08-04T23:05:39.352Z,30.30
2022-08-04T23:08:12.336Z,30.30
2022-08-04T23:10:44.948Z,30.30
2022-08-04T23:13:13.174Z,30.30
2022-08-04T23:15:42.861Z,30.20
2022-08-04T23:18:11.003Z,30.20
2022-08-04T23:20:39.656Z,30.20
2022-08-04T23:23:15.021Z,30.10
2022-08-04T23:26:04.769Z,30.10
2022-08-04T23:28:34.611Z,30.10
2022-08-04T23:31:05.902Z,30.00
2022-08-04T23:33:50.875Z,30.00
2022-08-04T23:36:29.987Z,29.90
2022-08-04T23:39:01.104Z,29.90
2022-08-04T23:41:53.815Z,29.90
2022-08-04T23:44:24.798Z,29.90
2022-08-04T23:47:00.468Z,29.80
2022-08-04T23:49:43.926Z,29.70
2022-08-04T23:52:23.573Z,29.70
2022-08-04T23:54:58.486Z,29.70
2022-08-04T23:58:02.035Z,29.70
